Time;durP1;ratioP1;P1;durP2;ratioP2;P2;SDS_P1;SDS_P2;PMS_P1;PMS_P2;Temp;Humidity;BMP_temperature;BMP_pressure;BME280_temperature;BME280_humidity;BME280_pressure;Samples;Min_cycle;Max_cycle;Signal;HPM_P1;HPM_P2
2023/02/04 00:01:07;;;;;;;4.00;2.10;;;;;;;1.49;100.00;95814.74;109014;1274;34231;-80
2023/02/04 00:03:41;;;;;;;3.00;1.60;;;;;;;1.53;100.00;95820.68;108928;1275;172825;-80
2023/02/04 00:06:12;;;;;;;4.50;1.60;;;;;;;1.52;100.00;95816.55;109017;1271;23872;-80
2023/02/04 00:08:43;;;;;;;4.10;2.00;;;;;;;1.52;100.00;95816.77;108990;1275;22474;-80
2023/02/04 00:11:20;;;;;;;2.20;1.30;;;;;;;1.50;100.00;95817.10;109023;1269;31182;-80
2023/02/04 00:13:51;;;;;;;3.70;1.30;;;;;;;1.50;100.00;95808.02;109040;1274;23758;-80
2023/02/04 00:16:22;;;;;;;3.60;1.60;;;;;;;1.49;100.00;95807.33;109009;1275;23250;-80
2023/02/04 00:18:55;;;;;;;3.60;1.80;;;;;;;1.47;100.00;95808.14;109005;1275;22533;-80
2023/02/04 00:21:27;;;;;;;2.60;1.50;;;;;;;1.48;100.00;95805.85;108966;1269;63217;-80
2023/02/04 00:24:02;;;;;;;4.90;1.70;;;;;;;1.50;100.00;95802.06;109068;1269;22521;-79
2023/02/04 00:26:35;;;;;;;1.60;1.10;;;;;;;1.52;100.00;95806.11;108849;1275;22585;-80
2023/02/04 00:29:06;;;;;;;2.30;1.40;;;;;;;1.53;100.00;95808.42;108818;1274;24206;-80
2023/02/04 00:31:42;;;;;;;4.60;1.80;;;;;;;1.56;100.00;95804.45;108984;1267;43034;-80
2023/02/04 00:34:14;;;;;;;4.50;2.60;;;;;;;1.59;100.00;95804.48;109046;1275;22514;-80
2023/02/04 00:36:45;;;;;;;2.80;1.80;;;;;;;1.58;100.00;95797.38;109059;1275;23800;-79
2023/02/04 00:39:21;;;;;;;4.10;1.40;;;;;;;1.60;100.00;95793.95;108985;1275;23765;-80
2023/02/04 00:41:56;;;;;;;3.90;2.00;;;;;;;1.61;100.00;95798.61;108720;1271;33329;-79
2023/02/04 00:44:29;;;;;;;2.60;1.50;;;;;;;1.62;100.00;95794.91;108819;1274;22528;-80
2023/02/04 00:47:00;;;;;;;1.50;1.10;;;;;;;1.63;100.00;95798.11;109039;1275;22590;-80
2023/02/04 00:49:33;;;;;;;2.40;1.20;;;;;;;1.63;100.00;95781.80;108991;1271;22486;-80
2023/02/04 00:52:07;;;;;;;2.00;1.10;;;;;;;1.64;100.00;95789.50;108958;1274;103751;-79
2023/02/04 00:54:44;;;;;;;2.40;1.20;;;;;;;1.63;100.00;95792.46;109065;1275;22696;-79
2023/02/04 00:57:15;;;;;;;2.50;1.30;;;;;;;1.63;100.00;95792.94;109044;1275;22518;-79
2023/02/04 00:59:49;;;;;;;2.50;0.80;;;;;;;1.63;100.00;95795.50;109049;1270;22516;-80
2023/02/04 01:02:21;;;;;;;2.70;1.30;;;;;;;1.64;100.00;95789.61;108834;1256;22523;-79
2023/02/04 01:04:52;;;;;;;1.50;1.00;;;;;;;1.62;100.00;95791.10;109007;1275;24264;-79
2023/02/04 01:07:23;;;;;;;2.10;1.00;;;;;;;1.60;100.00;95790.40;108994;1267;25289;-79
2023/02/04 01:09:56;;;;;;;2.60;0.80;;;;;;;1.57;100.00;95789.73;109054;1275;29119;-79
2023/02/04 01:12:27;;;;;;;3.70;1.00;;;;;;;1.56;100.00;95784.61;108825;1274;22528;-79
2023/02/04 01:14:58;;;;;;;1.40;0.70;;;;;;;1.56;100.00;95778.86;108819;1275;22526;-79
2023/02/04 01:17:30;;;;;;;1.50;0.80;;;;;;;1.55;100.00;95778.36;108813;1272;25502;-79
2023/02/04 01:20:05;;;;;;;1.80;0.80;;;;;;;1.54;100.00;95772.08;108750;1268;87527;-79
2023/02/04 01:22:36;;;;;;;0.40;0.40;;;;;;;1.54;100.00;95770.55;108791;1274;22520;-79
2023/02/04 01:25:11;;;;;;;1.50;0.80;;;;;;;1.53;100.00;95764.70;109050;1271;22563;-80
2023/02/04 01:27:46;;;;;;;1.50;0.80;;;;;;;1.53;100.00;95762.08;109036;1274;24183;-79
2023/02/04 01:30:22;;;;;;;1.00;0.40;;;;;;;1.51;100.00;95755.31;108763;1272;45168;-79
2023/02/04 01:32:57;;;;;;;1.00;0.50;;;;;;;1.49;100.00;95750.60;108807;1274;22634;-79
2023/02/04 01:35:29;;;;;;;1.70;0.50;;;;;;;1.46;100.00;95759.59;109053;1275;22547;-79
2023/02/04 01:38:00;;;;;;;1.60;0.80;;;;;;;1.46;100.00;95747.95;108993;1274;24246;-79
2023/02/04 01:40:33;;;;;;;1.10;0.50;;;;;;;1.48;100.00;95749.90;108736;1275;92517;-79
2023/02/04 01:43:06;;;;;;;1.70;0.80;;;;;;;1.49;100.00;95746.21;108753;1275;25427;-79
2023/02/04 01:45:38;;;;;;;0.80;0.70;;;;;;;1.51;100.00;95736.56;108817;1275;22521;-79
2023/02/04 01:48:18;;;;;;;2.20;1.00;;;;;;;1.55;100.00;95726.16;108748;1274;22570;-79
2023/02/04 01:50:51;;;;;;;1.70;0.80;;;;;;;1.56;100.00;95725.41;108705;1274;95618;-79
2023/02/04 01:53:26;;;;;;;1.10;0.40;;;;;;;1.58;100.00;95721.83;108845;1275;22534;-79
2023/02/04 01:55:58;;;;;;;0.90;0.60;;;;;;;1.60;100.00;95716.79;108813;1274;25294;-79
2023/02/04 01:58:33;;;;;;;2.40;0.90;;;;;;;1.60;100.00;95718.03;108829;1274;22534;-78
2023/02/04 02:01:11;;;;;;;1.20;0.40;;;;;;;1.58;100.00;95712.95;108773;1267;54448;-79
2023/02/04 02:03:44;;;;;;;1.60;0.70;;;;;;;1.58;100.00;95723.87;108787;1271;22525;-79
2023/02/04 02:06:17;;;;;;;1.20;0.60;;;;;;;1.57;100.00;95720.68;108813;1275;22529;-79
2023/02/04 02:08:55;;;;;;;0.70;0.50;;;;;;;1.58;100.00;95715.09;108826;1271;22528;-79
2023/02/04 02:11:26;;;;;;;0.70;0.50;;;;;;;1.58;100.00;95714.40;108754;1275;52635;-79
2023/02/04 02:14:00;;;;;;;1.00;0.50;;;;;;;1.59;100.00;95716.45;108794;1275;24221;-79
2023/02/04 02:16:34;;;;;;;1.20;0.70;;;;;;;1.58;100.00;95720.27;108831;1268;22522;-79
2023/02/04 02:19:08;;;;;;;1.30;0.70;;;;;;;1.56;100.00;95718.25;108821;1275;22533;-79
2023/02/04 02:21:45;;;;;;;1.80;0.90;;;;;;;1.56;100.00;95720.61;107455;1270;1826927;-78
2023/02/04 02:24:27;;;;;;;1.30;0.50;;;;;;;1.54;100.00;95719.88;108801;1274;24305;-79
2023/02/04 02:27:06;;;;;;;0.80;0.30;;;;;;;1.51;100.00;95717.87;108805;1275;22524;-79
2023/02/04 02:29:39;;;;;;;0.60;0.40;;;;;;;1.50;100.00;95728.55;108811;1275;22900;-79
2023/02/04 02:32:14;;;;;;;1.10;0.50;;;;;;;1.48;100.00;95726.55;108749;1274;22550;-79
2023/02/04 02:34:46;;;;;;;1.40;0.80;;;;;;;1.46;100.00;95728.37;108800;1274;22761;-79
2023/02/04 02:37:17;;;;;;;3.60;1.40;;;;;;;1.44;100.00;95722.95;108830;1271;24218;-79
2023/02/04 02:39:54;;;;;;;0.80;0.40;;;;;;;1.42;100.00;95733.77;108839;1274;22528;-79
2023/02/04 02:42:25;;;;;;;2.80;1.30;;;;;;;1.43;100.00;95732.09;108756;1255;22591;-79
2023/02/04 02:45:03;;;;;;;0.70;0.40;;;;;;;1.44;100.00;95735.76;108782;1274;22677;-79
2023/02/04 02:47:38;;;;;;;1.00;0.60;;;;;;;1.43;100.00;95741.29;108852;1275;22525;-80
2023/02/04 02:50:17;;;;;;;1.00;0.50;;;;;;;1.43;100.00;95743.80;108955;1275;22518;-80
2023/02/04 02:52:48;;;;;;;0.50;0.30;;;;;;;1.45;100.00;95745.13;108997;1275;23877;-80
2023/02/04 02:55:22;;;;;;;0.60;0.40;;;;;;;1.51;100.00;95744.19;108822;1268;22817;-80
2023/02/04 02:57:57;;;;;;;0.70;0.30;;;;;;;1.53;100.00;95737.69;108801;1272;23832;-80
2023/02/04 03:00:32;;;;;;;0.60;0.50;;;;;;;1.53;100.00;95750.43;108758;1274;22815;-79
2023/02/04 03:03:08;;;;;;;0.40;0.40;;;;;;;1.47;100.00;95746.81;108786;1274;24324;-79
2023/02/04 03:05:44;;;;;;;0.50;0.40;;;;;;;1.38;100.00;95761.41;109054;1267;22526;-79
2023/02/04 03:08:21;;;;;;;1.70;0.40;;;;;;;1.28;100.00;95769.06;109033;1275;23921;-78
2023/02/04 03:10:54;;;;;;;0.70;0.50;;;;;;;1.21;100.00;95773.29;108769;1274;23414;-78
2023/02/04 03:13:28;;;;;;;1.40;0.40;;;;;;;1.10;100.00;95772.15;108772;1275;22520;-78
2023/02/04 03:16:01;;;;;;;1.00;0.20;;;;;;;1.03;100.00;95779.67;108841;1269;22529;-79
2023/02/04 03:18:42;;;;;;;0.40;0.20;;;;;;;0.95;100.00;95780.21;108800;1275;22530;-79
2023/02/04 03:21:13;;;;;;;0.70;0.40;;;;;;;0.88;100.00;95777.67;108765;1274;22549;-79
2023/02/04 03:23:44;;;;;;;1.60;0.50;;;;;;;0.82;100.00;95774.30;108764;1275;23840;-80
2023/02/04 03:26:19;;;;;;;0.40;0.30;;;;;;;0.75;100.00;95769.67;108767;1272;22522;-80
2023/02/04 03:29:07;;;;;;;0.50;0.30;;;;;;;0.67;100.00;95760.55;108784;1268;22520;-80
2023/02/04 03:31:41;;;;;;;1.90;0.60;;;;;;;0.62;100.00;95758.50;108757;1272;22600;-81
2023/02/04 03:34:18;;;;;;;0.80;0.70;;;;;;;0.61;100.00;95767.98;108793;1274;22565;-80
2023/02/04 03:36:49;;;;;;;1.30;0.50;;;;;;;0.62;100.00;95773.94;108848;1269;24305;-79
2023/02/04 03:39:22;;;;;;;0.50;0.40;;;;;;;0.64;100.00;95779.60;108813;1268;22549;-79
2023/02/04 03:41:53;;;;;;;1.70;0.90;;;;;;;0.67;100.00;95776.84;108833;1271;22573;-79
2023/02/04 03:44:25;;;;;;;1.40;0.80;;;;;;;0.67;100.00;95791.20;108792;1271;22902;-79
2023/02/04 03:46:58;;;;;;;1.90;0.70;;;;;;;0.68;100.00;95792.61;108926;1272;25274;-79
2023/02/04 03:49:42;;;;;;;0.70;0.70;;;;;;;0.69;100.00;95787.66;108831;1274;22549;-79
2023/02/04 03:52:20;;;;;;;3.10;1.30;;;;;;;0.67;100.00;95798.59;108727;1275;22549;-78
2023/02/04 03:54:51;;;;;;;1.30;0.80;;;;;;;0.66;100.00;95793.15;108813;1274;23503;-79
2023/02/04 03:57:25;;;;;;;1.60;0.90;;;;;;;0.64;100.00;95799.48;108779;1272;25437;-79
2023/02/04 04:00:03;;;;;;;3.40;0.90;;;;;;;0.63;100.00;95793.62;108793;1275;22528;-78
2023/02/04 04:02:34;;;;;;;1.80;1.10;;;;;;;0.61;100.00;95811.85;108802;1275;22514;-78
2023/02/04 04:05:12;;;;;;;1.10;1.00;;;;;;;0.57;100.00;95803.14;108812;1275;25438;-79
2023/02/04 04:07:46;;;;;;;2.80;1.50;;;;;;;0.54;100.00;95821.80;108743;1273;22553;-79
2023/02/04 04:10:19;;;;;;;1.40;0.90;;;;;;;0.52;100.00;95835.73;108827;1272;22531;-79
2023/02/04 04:12:50;;;;;;;0.90;0.80;;;;;;;0.50;100.00;95834.50;108758;1274;22668;-79
2023/02/04 04:15:25;;;;;;;1.20;0.90;;;;;;;0.47;100.00;95832.78;108882;1275;22592;-79
2023/02/04 04:17:57;;;;;;;1.00;0.70;;;;;;;0.44;100.00;95843.63;108802;1272;23868;-79
2023/02/04 04:20:33;;;;;;;1.40;0.70;;;;;;;0.40;100.00;95848.59;108831;1275;22531;-79
2023/02/04 04:23:06;;;;;;;1.20;0.80;;;;;;;0.38;100.00;95855.54;108872;1275;22475;-79
2023/02/04 04:25:41;;;;;;;1.30;0.80;;;;;;;0.36;100.00;95863.19;108813;1267;23802;-80
2023/02/04 04:28:12;;;;;;;1.50;0.70;;;;;;;0.37;100.00;95862.98;108859;1275;23559;-80
2023/02/04 04:30:43;;;;;;;1.00;0.60;;;;;;;0.35;100.00;95882.40;106945;1275;2492343;-80
2023/02/04 04:33:16;;;;;;;0.50;0.50;;;;;;;0.29;100.00;95876.77;108815;1274;22545;-80
2023/02/04 04:35:47;;;;;;;0.60;0.40;;;;;;;0.27;100.00;95891.52;109070;1274;24224;-79
2023/02/04 04:38:20;;;;;;;0.70;0.50;;;;;;;0.20;100.00;95901.09;108998;1275;22514;-79
2023/02/04 04:40:55;;;;;;;1.00;0.60;;;;;;;0.16;100.00;95902.06;108774;1275;22544;-79
2023/02/04 04:43:27;;;;;;;1.50;0.40;;;;;;;0.14;100.00;95919.67;108799;1271;22576;-79
2023/02/04 04:46:02;;;;;;;0.70;0.40;;;;;;;0.11;100.00;95921.90;108804;1272;22534;-79
2023/02/04 04:48:33;;;;;;;1.30;1.00;;;;;;;0.08;100.00;95934.91;108822;1275;22579;-79
2023/02/04 04:51:13;;;;;;;1.70;1.00;;;;;;;0.05;100.00;95936.83;108702;1273;98551;-80
2023/02/04 04:53:49;;;;;;;1.00;0.50;;;;;;;0.02;100.00;95945.02;108746;1275;22689;-80
2023/02/04 04:56:20;;;;;;;0.40;0.40;;;;;;;0.02;100.00;95948.66;108815;1272;22524;-80
2023/02/04 04:58:54;;;;;;;0.50;0.40;;;;;;;-0.01;100.00;95959.33;108838;1275;22542;-80
2023/02/04 05:01:26;;;;;;;0.30;0.30;;;;;;;-0.04;100.00;95969.27;108752;1271;22525;-79
2023/02/04 05:04:05;;;;;;;0.40;0.30;;;;;;;-0.06;100.00;95985.42;108836;1275;22508;-80
2023/02/04 05:06:38;;;;;;;0.70;0.30;;;;;;;-0.07;100.00;95999.31;108799;1275;22510;-80
2023/02/04 05:09:14;;;;;;;0.40;0.30;;;;;;;-0.08;100.00;96014.36;108807;1275;22593;-80
2023/02/04 05:11:47;;;;;;;0.20;0.20;;;;;;;-0.07;100.00;96046.12;108793;1275;22547;-79
2023/02/04 05:14:18;;;;;;;2.50;1.40;;;;;;;-0.09;100.00;96064.61;108854;1269;22701;-79
2023/02/04 05:16:53;;;;;;;1.80;1.60;;;;;;;-0.22;100.00;96076.77;108810;1275;22528;-79
2023/02/04 05:19:24;;;;;;;2.50;1.90;;;;;;;-0.35;100.00;96101.52;108834;1274;23818;-79
2023/02/04 05:22:00;;;;;;;4.90;3.40;;;;;;;-0.44;100.00;96114.21;108808;1272;24389;-79
2023/02/04 05:24:34;;;;;;;8.50;5.90;;;;;;;-0.60;100.00;96130.54;108807;1272;23295;-79
2023/02/04 05:27:06;;;;;;;9.10;7.00;;;;;;;-0.77;100.00;96146.47;108828;1272;22570;-79
2023/02/04 05:29:46;;;;;;;9.60;7.10;;;;;;;-0.94;100.00;96163.70;108809;1273;22717;-79
2023/02/04 05:32:26;;;;;;;9.40;7.00;;;;;;;-1.05;100.00;96184.68;108793;1275;22632;-79
2023/02/04 05:34:57;;;;;;;9.60;6.20;;;;;;;-1.14;100.00;96199.09;108765;1275;22537;-79
2023/02/04 05:37:29;;;;;;;9.40;7.40;;;;;;;-1.24;100.00;96215.86;108758;1275;24287;-79
2023/02/04 05:40:00;;;;;;;11.60;8.70;;;;;;;-1.34;100.00;96239.22;108794;1275;22528;-79
2023/02/04 05:42:33;;;;;;;12.00;9.40;;;;;;;-1.43;100.00;96254.92;108774;1257;22602;-79
2023/02/04 05:45:04;;;;;;;12.00;9.50;;;;;;;-1.50;100.00;96271.45;108821;1275;22542;-79
2023/02/04 05:47:35;;;;;;;10.90;8.10;;;;;;;-1.56;100.00;96274.81;108822;1275;22529;-79
2023/02/04 05:50:13;;;;;;;11.00;8.30;;;;;;;-1.66;100.00;96295.27;108796;1274;30536;-79
2023/02/04 05:52:44;;;;;;;10.50;8.40;;;;;;;-1.74;100.00;96317.57;108852;1267;22561;-79
2023/02/04 05:55:18;;;;;;;9.50;8.00;;;;;;;-1.77;100.00;96330.27;108810;1275;22519;-78
2023/02/04 05:57:54;;;;;;;10.20;7.80;;;;;;;-1.82;100.00;96344.23;108803;1275;23366;-79
2023/02/04 06:00:26;;;;;;;9.90;7.30;;;;;;;-1.89;100.00;96359.92;108807;1272;22541;-79
2023/02/04 06:02:57;;;;;;;10.10;8.20;;;;;;;-1.95;100.00;96374.66;108804;1274;22517;-78
2023/02/04 06:05:28;;;;;;;8.10;6.90;;;;;;;-2.01;100.00;96401.56;108845;1275;22481;-79
2023/02/04 06:08:00;;;;;;;8.00;6.00;;;;;;;-2.05;100.00;96410.98;108808;1272;22520;-78
2023/02/04 06:10:32;;;;;;;10.60;8.10;;;;;;;-2.12;100.00;96443.35;108787;1270;22513;-79
2023/02/04 06:13:06;;;;;;;10.30;7.70;;;;;;;-2.16;100.00;96455.54;108784;1267;25086;-78
2023/02/04 06:15:39;;;;;;;8.90;6.90;;;;;;;-2.17;100.00;96474.19;108820;1274;23939;-78
2023/02/04 06:18:10;;;;;;;11.70;8.30;;;;;;;-2.18;100.00;96489.02;108799;1275;22618;-78
2023/02/04 06:20:45;;;;;;;8.50;7.40;;;;;;;-2.20;100.00;96503.65;108802;1273;22525;-78
2023/02/04 06:23:16;;;;;;;9.90;7.00;;;;;;;-2.21;100.00;96514.71;108805;1264;24031;-78
2023/02/04 06:25:49;;;;;;;9.10;7.20;;;;;;;-2.23;100.00;96523.27;108789;1272;22527;-78
2023/02/04 06:28:23;;;;;;;8.80;6.90;;;;;;;-2.26;100.00;96537.86;108806;1275;24211;-78
2023/02/04 06:30:57;;;;;;;9.30;6.20;;;;;;;-2.28;100.00;96545.05;108790;1275;22520;-78
2023/02/04 06:33:31;;;;;;;8.90;6.00;;;;;;;-2.32;100.00;96561.08;108826;1273;22539;-78
2023/02/04 06:36:02;;;;;;;8.10;4.40;;;;;;;-2.32;100.00;96577.41;108797;1275;22547;-78
2023/02/04 06:38:35;;;;;;;8.40;5.40;;;;;;;-2.36;100.00;96587.63;108815;1275;22826;-79
2023/02/04 06:41:07;;;;;;;7.60;6.10;;;;;;;-2.43;100.00;96606.58;108807;1274;22662;-78
2023/02/04 06:43:38;;;;;;;5.60;4.40;;;;;;;-2.45;100.00;96620.99;108761;1257;22541;-78
2023/02/04 06:46:12;;;;;;;6.00;4.60;;;;;;;-2.46;100.00;96627.22;108816;1267;22536;-79
2023/02/04 06:48:45;;;;;;;6.50;4.50;;;;;;;-2.47;100.00;96644.98;108800;1275;22521;-79
2023/02/04 06:51:21;;;;;;;5.50;4.50;;;;;;;-2.47;100.00;96656.33;108726;1267;78609;-79
2023/02/04 06:53:52;;;;;;;5.20;4.30;;;;;;;-2.49;100.00;96669.83;108804;1274;22551;-79
2023/02/04 06:56:23;;;;;;;6.00;4.00;;;;;;;-2.50;100.00;96681.73;108875;1274;22507;-79
2023/02/04 06:58:55;;;;;;;7.50;4.60;;;;;;;-2.51;100.00;96700.92;108853;1275;22637;-79
2023/02/04 07:01:26;;;;;;;6.40;4.00;;;;;;;-2.51;100.00;96720.66;108800;1268;24250;-79
2023/02/04 07:03:57;;;;;;;4.70;4.10;;;;;;;-2.52;100.00;96734.99;108838;1275;25448;-80
2023/02/04 07:06:28;;;;;;;7.00;4.60;;;;;;;-2.51;100.00;96746.69;108823;1273;22917;-80
2023/02/04 07:09:04;;;;;;;5.80;4.20;;;;;;;-2.51;100.00;96757.64;108820;1267;22467;-80
2023/02/04 07:11:36;;;;;;;5.40;4.30;;;;;;;-2.51;100.00;96768.25;108788;1275;22530;-80
2023/02/04 07:14:11;;;;;;;6.80;4.90;;;;;;;-2.54;100.00;96784.12;108826;1273;25345;-79
2023/02/04 07:16:42;;;;;;;6.00;4.50;;;;;;;-2.53;100.00;96786.89;108863;1251;22543;-79
2023/02/04 07:19:21;;;;;;;4.90;3.60;;;;;;;-2.58;100.00;96793.31;108850;1251;23277;-80
2023/02/04 07:21:55;;;;;;;5.90;4.30;;;;;;;-2.63;100.00;96810.23;108826;1272;24222;-80
2023/02/04 07:24:26;;;;;;;6.60;4.60;;;;;;;-2.67;100.00;96825.91;108801;1275;22525;-80
2023/02/04 07:26:58;;;;;;;6.50;4.40;;;;;;;-2.70;100.00;96842.73;108869;1273;23002;-80
2023/02/04 07:29:31;;;;;;;4.80;3.10;;;;;;;-2.73;100.00;96857.84;108802;1275;22563;-79
2023/02/04 07:32:03;;;;;;;6.60;4.60;;;;;;;-2.78;100.00;96870.88;108815;1275;22594;-79
2023/02/04 07:34:34;;;;;;;6.80;4.70;;;;;;;-2.79;100.00;96883.36;108878;1275;22620;-79
2023/02/04 07:37:06;;;;;;;7.60;4.60;;;;;;;-2.80;100.00;96896.45;108826;1267;22524;-79
2023/02/04 07:39:41;;;;;;;7.00;4.20;;;;;;;-2.83;100.00;96909.56;108789;1275;22532;-80
2023/02/04 07:42:16;;;;;;;6.50;4.40;;;;;;;-2.83;100.00;96918.38;108822;1267;25278;-80
2023/02/04 07:44:47;;;;;;;5.90;4.30;;;;;;;-2.83;100.00;96938.42;108816;1275;23231;-80
2023/02/04 07:47:23;;;;;;;5.80;4.40;;;;;;;-2.83;100.00;96951.95;108837;1274;22534;-80
2023/02/04 07:50:01;;;;;;;7.80;4.70;;;;;;;-2.81;100.00;96959.65;109043;1275;22520;-80
2023/02/04 07:52:32;;;;;;;7.30;5.20;;;;;;;-2.76;100.00;96973.35;109042;1267;23834;-80
2023/02/04 07:55:03;;;;;;;7.20;5.40;;;;;;;-2.69;100.00;96979.47;109072;1267;22535;-80
2023/02/04 07:57:39;;;;;;;5.40;4.50;;;;;;;-2.63;100.00;96991.52;109027;1272;22573;-80
2023/02/04 08:00:13;;;;;;;7.10;5.60;;;;;;;-2.63;100.00;96993.11;109044;1275;22557;-81
2023/02/04 08:02:47;;;;;;;7.40;5.60;;;;;;;-2.63;100.00;97004.73;109032;1275;22537;-81
2023/02/04 08:05:19;;;;;;;7.70;5.20;;;;;;;-2.66;100.00;97018.20;109036;1267;22538;-81
2023/02/04 08:08:00;;;;;;;7.40;5.40;;;;;;;-2.71;100.00;97027.73;109085;1267;22569;-81
2023/02/04 08:10:40;;;;;;;7.70;5.10;;;;;;;-2.71;100.00;97040.13;109013;1275;22521;-81
2023/02/04 08:13:14;;;;;;;8.40;5.70;;;;;;;-2.73;100.00;97039.76;109052;1267;22573;-80
2023/02/04 08:15:49;;;;;;;6.50;4.80;;;;;;;-2.75;100.00;97055.39;108940;1257;24226;-81
2023/02/04 08:18:20;;;;;;;7.50;5.30;;;;;;;-2.76;100.00;97065.05;109038;1275;22521;-81
2023/02/04 08:21:00;;;;;;;8.30;5.50;;;;;;;-2.75;100.00;97078.45;109040;1274;22930;-81
2023/02/04 08:23:40;;;;;;;7.80;5.70;;;;;;;-2.74;100.00;97086.41;109060;1275;22652;-81
2023/02/04 08:26:16;;;;;;;8.70;6.00;;;;;;;-2.74;100.00;97085.97;109036;1274;22606;-81
2023/02/04 08:28:50;;;;;;;7.50;5.60;;;;;;;-2.79;100.00;97098.02;108992;1274;23730;-81
2023/02/04 08:31:26;;;;;;;8.30;5.80;;;;;;;-2.83;100.00;97107.61;107541;1274;1989141;-82
2023/02/04 08:34:02;;;;;;;8.10;5.80;;;;;;;-2.85;100.00;97118.56;109016;1269;22516;-81
2023/02/04 08:36:33;;;;;;;6.90;5.10;;;;;;;-2.87;100.00;97118.39;109058;1267;25278;-81
2023/02/04 08:39:09;;;;;;;5.70;4.30;;;;;;;-2.89;100.00;97122.64;109049;1267;22559;-81
2023/02/04 08:41:44;;;;;;;9.30;5.80;;;;;;;-2.91;100.00;97128.31;109018;1274;54932;-82
2023/02/04 08:44:19;;;;;;;8.20;5.30;;;;;;;-2.91;100.00;97133.23;108999;1275;22543;-82
2023/02/04 08:46:53;;;;;;;6.50;4.80;;;;;;;-2.88;100.00;97140.23;109081;1274;22523;-81
2023/02/04 08:49:27;;;;;;;7.40;5.20;;;;;;;-2.83;100.00;97150.65;109079;1274;24317;-81
2023/02/04 08:52:03;;;;;;;8.90;5.50;;;;;;;-2.77;100.00;97154.29;107523;1274;2011566;-81
2023/02/04 08:54:38;;;;;;;7.40;5.30;;;;;;;-2.72;100.00;97159.01;109050;1275;22523;-81
2023/02/04 08:57:14;;;;;;;8.60;5.00;;;;;;;-2.69;100.00;97167.10;109098;1274;22563;-81
2023/02/04 08:59:49;;;;;;;7.60;4.80;;;;;;;-2.62;100.00;97175.19;109070;1275;25435;-82
2023/02/04 09:02:28;;;;;;;8.20;5.60;;;;;;;-2.55;100.00;97173.83;107443;1274;2110685;-82
2023/02/04 09:05:00;;;;;;;8.20;5.40;;;;;;;-2.46;100.00;97176.73;109082;1271;22532;-82
2023/02/04 09:07:33;;;;;;;7.70;4.90;;;;;;;-2.40;100.00;97184.08;109056;1274;22504;-81
2023/02/04 09:10:22;;;;;;;7.50;4.40;;;;;;;-2.35;100.00;97192.91;109039;1274;22615;-81
2023/02/04 09:12:55;;;;;;;7.40;4.40;;;;;;;-2.22;100.00;97200.83;109002;1268;22497;-81
2023/02/04 09:15:31;;;;;;;7.50;4.90;;;;;;;-2.12;100.00;97216.42;109042;1275;24393;-81
2023/02/04 09:18:13;;;;;;;7.20;4.90;;;;;;;-2.06;100.00;97227.50;109083;1274;22946;-81
2023/02/04 09:20:47;;;;;;;6.70;4.20;;;;;;;-2.02;100.00;97236.23;108998;1275;56602;-82
2023/02/04 09:23:22;;;;;;;6.90;4.80;;;;;;;-2.03;100.00;97243.78;109058;1269;22533;-81
2023/02/04 09:26:00;;;;;;;8.30;4.50;;;;;;;-2.13;100.00;97255.14;109059;1272;22936;-81
2023/02/04 09:28:35;;;;;;;6.40;5.00;;;;;;;-2.12;100.00;97263.77;109040;1275;22535;-81
2023/02/04 09:31:23;;;;;;;7.40;4.60;;;;;;;-2.13;100.00;97271.76;107029;1270;2589031;-82
2023/02/04 09:34:03;;;;;;;7.10;4.60;;;;;;;-2.13;100.00;97278.83;109065;1267;24208;-81
2023/02/04 09:36:37;;;;;;;6.90;4.10;;;;;;;-2.20;100.00;97280.05;109048;1272;23837;-81
2023/02/04 09:39:11;;;;;;;7.50;4.70;;;;;;;-2.20;100.00;97286.70;109065;1275;25320;-82
2023/02/04 09:41:44;;;;;;;8.00;5.00;;;;;;;-2.16;100.00;97293.50;109018;1268;41958;-82
2023/02/04 09:44:20;;;;;;;7.50;4.60;;;;;;;-2.17;100.00;97295.84;108995;1267;24184;-82
2023/02/04 09:46:53;;;;;;;5.60;4.00;;;;;;;-2.24;100.00;97304.96;109016;1275;22618;-82
2023/02/04 09:49:29;;;;;;;5.10;3.80;;;;;;;-2.23;100.00;97310.77;109058;1267;22523;-83
2023/02/04 09:52:01;;;;;;;6.70;4.30;;;;;;;-2.23;100.00;97313.73;108995;1274;65793;-83
2023/02/04 09:54:45;;;;;;;5.40;4.00;;;;;;;-2.19;100.00;97322.44;109076;1267;22589;-82
2023/02/04 09:57:23;;;;;;;6.10;4.50;;;;;;;-2.14;100.00;97330.58;109055;1274;22563;-82
2023/02/04 10:00:11;;;;;;;5.80;4.20;;;;;;;-2.07;100.00;97335.23;109028;1258;22634;-83
2023/02/04 10:02:43;;;;;;;7.40;4.30;;;;;;;-1.96;100.00;97339.64;107139;1267;2557925;-83
2023/02/04 10:05:27;;;;;;;5.40;3.60;;;;;;;-1.85;100.00;97343.77;109075;1275;23762;-82
2023/02/04 10:08:06;;;;;;;6.20;4.20;;;;;;;-1.90;100.00;97348.90;109074;1272;22528;-83
2023/02/04 10:10:47;;;;;;;6.30;4.50;;;;;;;-1.94;100.00;97353.62;108985;1274;55254;-83
2023/02/04 10:13:20;;;;;;;6.50;4.70;;;;;;;-1.96;100.00;97355.75;109044;1274;22657;-83
2023/02/04 10:15:56;;;;;;;5.40;4.30;;;;;;;-1.99;100.00;97360.14;109023;1275;22523;-83
2023/02/04 10:18:33;;;;;;;6.60;4.60;;;;;;;-1.97;100.00;97363.12;109073;1275;22546;-83
2023/02/04 10:21:17;;;;;;;6.70;5.10;;;;;;;-1.95;100.00;97360.45;109031;1274;47857;-83
2023/02/04 10:23:59;;;;;;;6.60;4.60;;;;;;;-1.92;100.00;97367.32;109025;1267;22571;-83
2023/02/04 10:26:34;;;;;;;7.00;5.30;;;;;;;-1.88;100.00;97368.55;109040;1275;23856;-83
2023/02/04 10:29:18;;;;;;;8.00;5.90;;;;;;;-1.95;100.00;97365.51;109045;1274;22565;-83
2023/02/04 10:31:51;;;;;;;8.70;5.30;;;;;;;-2.09;100.00;97370.05;109021;1271;48478;-83
2023/02/04 10:34:38;;;;;;;7.80;5.60;;;;;;;-2.20;100.00;97374.17;109082;1267;22640;-83
2023/02/04 10:37:22;;;;;;;8.20;5.00;;;;;;;-2.26;100.00;97371.85;108995;1274;22539;-83
2023/02/04 10:39:56;;;;;;;6.90;4.60;;;;;;;-2.26;99.96;97376.92;109068;1267;22536;-82
2023/02/04 10:42:40;;;;;;;7.10;5.10;;;;;;;-2.18;100.00;97374.88;108984;1267;33354;-83
2023/02/04 10:45:27;;;;;;;9.00;5.60;;;;;;;-2.08;100.00;97374.78;109048;1275;22535;-83
2023/02/04 10:48:07;;;;;;;8.80;5.80;;;;;;;-2.00;100.00;97376.29;109041;1274;22531;-83
2023/02/04 10:50:41;;;;;;;8.90;5.60;;;;;;;-1.89;100.00;97379.39;109023;1264;52643;-83
2023/02/04 10:56:24;;;;;;;9.20;5.10;;;;;;;-1.69;100.00;97377.86;109087;1269;22556;-83
2023/02/04 10:58:56;;;;;;;9.90;6.80;;;;;;;-1.78;99.99;97379.20;109066;1272;23850;-83
2023/02/04 11:01:34;;;;;;;9.70;5.80;;;;;;;-1.83;100.00;97375.98;109037;1275;60515;-83
2023/02/04 11:04:10;;;;;;;7.20;5.10;;;;;;;-1.86;100.00;97385.25;109080;1274;22834;-83
2023/02/04 11:06:41;;;;;;;10.70;5.80;;;;;;;-1.99;99.89;97398.88;109094;1275;22661;-83
2023/02/04 11:09:15;;;;;;;8.30;5.40;;;;;;;-2.13;99.90;97407.91;109038;1269;25418;-84
2023/02/04 11:12:02;;;;;;;7.70;4.80;;;;;;;-2.22;99.93;97415.55;107712;1274;1795007;-83
2023/02/04 11:14:38;;;;;;;7.40;4.90;;;;;;;-2.21;100.00;97410.96;109061;1274;22610;-83
2023/02/04 11:17:32;;;;;;;6.80;4.90;;;;;;;-2.09;100.00;97410.08;109045;1269;22709;-83
2023/02/04 11:20:38;;;;;;;8.60;5.40;;;;;;;-1.81;100.00;97409.16;109055;1267;22577;-83
2023/02/04 11:23:36;;;;;;;7.40;5.20;;;;;;;-1.35;100.00;97406.42;109095;1267;23838;-82
2023/02/04 11:26:18;;;;;;;6.80;4.60;;;;;;;-1.33;99.93;97405.73;109066;1269;24204;-82
2023/02/04 11:28:55;;;;;;;6.60;4.90;;;;;;;-1.39;99.36;97413.80;109067;1267;22562;-83
2023/02/04 11:31:50;;;;;;;6.70;5.00;;;;;;;-1.48;98.96;97418.92;107715;1272;1820383;-83
2023/02/04 11:34:44;;;;;;;7.50;4.90;;;;;;;-1.65;98.60;97425.16;109103;1275;24190;-83
2023/02/04 11:37:37;;;;;;;7.80;5.60;;;;;;;-1.76;98.23;97420.85;109101;1267;25056;-83
2023/02/04 11:40:35;;;;;;;7.80;4.70;;;;;;;-1.92;97.89;97433.98;109068;1275;22516;-83
2023/02/04 11:43:17;;;;;;;6.60;4.30;;;;;;;-1.89;98.18;97431.11;108951;1273;24305;-83
2023/02/04 11:45:49;;;;;;;6.70;5.00;;;;;;;-1.85;98.26;97435.92;108995;1272;23001;-84
2023/02/04 11:48:25;;;;;;;7.20;5.40;;;;;;;-1.82;98.56;97441.52;109045;1273;23808;-83
2023/02/04 11:51:04;;;;;;;8.50;5.00;;;;;;;-1.52;99.19;97444.59;109014;1273;54512;-82
2023/02/04 11:53:44;;;;;;;7.30;4.70;;;;;;;-1.40;98.24;97444.25;109065;1262;22532;-83
2023/02/04 11:56:26;;;;;;;5.90;3.90;;;;;;;-1.60;96.90;97447.21;109065;1274;22520;-83
2023/02/04 11:59:02;;;;;;;6.40;4.20;;;;;;;-1.73;96.59;97456.39;109049;1275;23191;-83